createdAt,value
2022-09-28T00:01:08.607Z,99290.66
2022-09-28T00:03:37.139Z,99281.97
2022-09-28T00:06:07.681Z,99300.69
2022-09-28T00:08:36.458Z,99266.19
2022-09-28T00:11:11.444Z,99306.03
2022-09-28T00:13:40.154Z,99304.06
2022-09-28T00:16:10.287Z,99295.66
2022-09-28T00:18:38.598Z,99312.03
2022-09-28T00:21:09.087Z,99299.03
2022-09-28T00:23:59.751Z,99311.38
2022-09-28T00:26:30.093Z,99294.00
2022-09-28T00:29:00.314Z,99278.63
2022-09-28T00:31:30.256Z,99249.34
2022-09-28T00:33:58.281Z,99253.25
2022-09-28T00:36:27.241Z,99244.69
2022-09-28T00:38:56.483Z,99228.84
2022-09-28T00:41:25.101Z,99194.13
2022-09-28T00:43:55.338Z,99191.47
2022-09-28T00:46:29.128Z,99167.09
2022-09-28T00:49:03.268Z,99206.16
2022-09-28T00:51:32.868Z,99214.47
2022-09-28T00:54:03.713Z,99239.19
2022-09-28T00:56:35.060Z,99229.69
2022-09-28T00:59:05.674Z,99241.88
2022-09-28T01:01:33.474Z,99242.84
2022-09-28T01:04:02.820Z,99234.66
2022-09-28T01:06:34.178Z,99251.41
2022-09-28T01:09:05.353Z,99255.59
2022-09-28T01:11:34.854Z,99259.78
2022-09-28T01:14:04.792Z,99268.78
2022-09-28T01:16:41.171Z,99274.81
2022-09-28T01:19:32.056Z,99303.53
2022-09-28T01:22:14.246Z,99352.13
2022-09-28T01:24:46.377Z,99365.31
2022-09-28T01:27:21.005Z,99356.47
2022-09-28T01:29:56.710Z,99340.69
2022-09-28T01:32:35.896Z,99354.09
2022-09-28T01:35:09.125Z,99396.59
2022-09-28T01:37:45.280Z,99383.16
2022-09-28T01:40:16.660Z,99391.25
2022-09-28T01:42:49.622Z,99352.97
2022-09-28T01:45:24.809Z,99403.59
2022-09-28T01:47:58.152Z,99426.31
2022-09-28T01:50:29.781Z,99443.41
2022-09-28T01:53:03.947Z,99452.09
2022-09-28T01:55:34.994Z,99456.59
2022-09-28T01:58:11.877Z,99441.72
2022-09-28T02:00:43.753Z,99420.97
2022-09-28T02:03:16.776Z,99426.84
2022-09-28T02:05:50.203Z,99410.91
2022-09-28T02:08:26.817Z,99390.88
2022-09-28T02:11:03.043Z,99387.06
2022-09-28T02:13:36.561Z,99343.69
2022-09-28T02:16:10.496Z,99370.50
2022-09-28T02:18:38.471Z,99349.75
2022-09-28T02:21:10.683Z,99363.78
2022-09-28T02:23:47.205Z,99377.53
2022-09-28T02:26:19.330Z,99386.50
2022-09-28T02:28:48.552Z,99380.19
2022-09-28T02:31:16.649Z,99358.38
2022-09-28T02:33:46.358Z,99385.53
2022-09-28T02:36:14.526Z,99394.91
2022-09-28T02:38:42.406Z,99419.31
2022-09-28T02:41:21.378Z,99423.81
2022-09-28T02:44:04.575Z,99420.16
2022-09-28T02:46:39.590Z,99397.72
2022-09-28T02:49:23.622Z,99383.72
2022-09-28T02:52:07.563Z,99375.72
2022-09-28T02:54:53.453Z,99369.81
2022-09-28T02:57:36.744Z,99343.06
2022-09-28T03:00:10.488Z,99355.09
2022-09-28T03:02:46.622Z,99348.41
2022-09-28T03:05:20.400Z,99354.09
2022-09-28T03:07:58.214Z,99353.13
2022-09-28T03:10:34.895Z,99352.75
2022-09-28T03:13:05.663Z,99362.13
2022-09-28T03:15:35.950Z,99351.38
2022-09-28T03:18:04.109Z,99364.63
2022-09-28T03:20:33.729Z,99369.66
2022-09-28T03:25:50.106Z,99367.75
2022-09-28T03:28:17.927Z,99346.41
2022-09-28T03:30:47.194Z,99339.41
2022-09-28T03:33:15.357Z,99341.38
2022-09-28T03:35:43.483Z,99342.22
2022-09-28T03:38:11.637Z,99325.69
2022-09-28T03:40:39.720Z,99323.03
2022-09-28T03:43:07.587Z,99322.19
2022-09-28T03:45:35.564Z,99326.00
2022-09-28T03:48:05.208Z,99323.72
2022-09-28T03:50:33.069Z,99337.03
2022-09-28T03:53:04.252Z,99322.19
2022-09-28T03:55:32.234Z,99291.69
2022-09-28T03:58:00.093Z,99325.69
2022-09-28T04:00:28.144Z,99314.81
2022-09-28T04:02:56.154Z,99360.44
2022-09-28T04:05:25.445Z,99367.44
2022-09-28T04:07:56.351Z,99376.81
2022-09-28T04:10:24.273Z,99368.59
2022-09-28T04:12:55.652Z,99350.06
2022-09-28T04:15:23.870Z,99364.09
2022-09-28T04:17:52.198Z,99375.97
2022-09-28T04:20:24.735Z,99366.06
2022-09-28T04:22:54.156Z,99353.72
2022-09-28T04:25:22.156Z,99384.81
2022-09-28T04:28:08.165Z,99364.78
2022-09-28T04:30:36.185Z,99348.41
2022-09-28T04:33:04.114Z,99371.63
2022-09-28T04:35:33.083Z,99356.78
2022-09-28T04:38:02.317Z,99357.25
2022-09-28T04:40:30.298Z,99354.41
2022-09-28T04:42:58.651Z,99328.34
2022-09-28T04:45:27.549Z,99354.41
2022-09-28T04:47:55.671Z,99347.56
2022-09-28T04:50:23.689Z,99335.00
2022-09-28T04:52:51.666Z,99340.56
2022-09-28T04:55:20.918Z,99334.69
2022-09-28T04:57:49.188Z,99339.19
2022-09-28T05:00:17.462Z,99347.25
2022-09-28T05:02:45.730Z,99358.06
2022-09-28T05:05:15.755Z,99325.50
2022-09-28T05:07:45.620Z,99365.69
2022-09-28T05:10:13.609Z,99386.50
2022-09-28T05:12:45.251Z,99402.22
2022-09-28T05:15:15.297Z,99404.91
2022-09-28T05:17:43.196Z,99402.22
2022-09-28T05:20:11.943Z,99401.41
2022-09-28T05:22:39.910Z,99402.22
2022-09-28T05:25:09.005Z,99408.25
2022-09-28T05:27:39.457Z,99412.59
2022-09-28T05:30:10.908Z,99419.63
2022-09-28T05:32:41.476Z,99436.00
2022-09-28T05:35:11.157Z,99461.06
2022-09-28T05:37:39.364Z,99443.16
2022-09-28T05:40:08.663Z,99414.16
2022-09-28T05:42:36.662Z,99418.63
2022-09-28T05:45:05.257Z,99437.69
2022-09-28T05:47:39.126Z,99399.72
2022-09-28T05:50:08.426Z,99398.56
2022-09-28T05:52:36.351Z,99397.72
2022-09-28T05:55:04.802Z,99405.06
2022-09-28T05:57:32.950Z,99375.22
2022-09-28T06:00:01.089Z,99382.09
2022-09-28T06:02:31.263Z,99403.22
2022-09-28T06:05:00.556Z,99412.91
2022-09-28T06:07:28.413Z,99409.94
2022-09-28T06:10:00.552Z,99424.63
2022-09-28T06:12:28.603Z,99428.31
2022-09-28T06:14:57.976Z,99437.00
2022-09-28T06:17:25.923Z,99457.19
2022-09-28T06:19:53.792Z,99448.03
2022-09-28T06:22:23.108Z,99451.00
2022-09-28T06:24:51.105Z,99463.38
2022-09-28T06:27:19.031Z,99477.78
2022-09-28T06:29:47.276Z,99462.00
2022-09-28T06:32:15.341Z,99516.22
2022-09-28T06:34:43.344Z,99517.91
2022-09-28T06:37:11.151Z,99521.28
2022-09-28T06:39:40.664Z,99542.34
2022-09-28T06:42:08.561Z,99572.75
2022-09-28T06:44:36.389Z,99540.50
2022-09-28T06:47:04.762Z,99592.56
2022-09-28T06:49:32.647Z,99558.50
2022-09-28T06:52:00.710Z,99588.22
2022-09-28T06:54:28.664Z,99618.66
2022-09-28T06:56:57.921Z,99633.41
2022-09-28T06:59:25.767Z,99654.47
2022-09-28T07:01:53.987Z,99717.06
2022-09-28T07:04:21.871Z,99733.09
2022-09-28T07:06:50.560Z,99771.03
2022-09-28T07:09:31.690Z,99758.91
2022-09-28T07:12:04.209Z,99803.88
2022-09-28T07:14:47.031Z,99850.09
2022-09-28T07:17:17.041Z,99902.69
2022-09-28T07:19:53.896Z,99890.63
2022-09-28T07:22:35.565Z,99947.63
2022-09-28T07:25:09.184Z,99987.44
2022-09-28T07:27:38.480Z,100022.75
2022-09-28T07:30:07.672Z,100062.00
2022-09-28T07:32:37.654Z,100109.16
2022-09-28T07:35:08.062Z,100159.69
2022-09-28T07:37:36.626Z,100199.25
2022-09-28T07:40:23.538Z,100147.59
2022-09-28T07:42:52.940Z,100193.19
2022-09-28T07:45:23.835Z,100185.88
2022-09-28T07:47:51.772Z,100240.91
2022-09-28T07:50:21.290Z,100332.75
2022-09-28T07:52:49.700Z,100403.50
2022-09-28T07:55:17.560Z,100540.56
2022-09-28T07:57:47.105Z,100702.56
2022-09-28T08:00:17.200Z,100857.63
2022-09-28T08:02:45.219Z,100997.84
2022-09-28T08:05:13.432Z,101208.69
2022-09-28T08:07:41.634Z,101477.41
2022-09-28T08:10:12.302Z,101495.06
2022-09-28T08:12:41.456Z,101622.50
2022-09-28T08:15:11.351Z,101574.09
2022-09-28T08:17:40.792Z,101926.50
2022-09-28T08:20:27.793Z,102070.22
2022-09-28T08:22:56.908Z,102160.47
2022-09-28T08:25:25.482Z,102614.84
2022-09-28T08:27:56.301Z,102955.06
2022-09-28T08:30:24.308Z,102968.25
2022-09-28T08:32:55.019Z,103025.81
2022-09-28T08:35:26.320Z,103206.94
2022-09-28T08:37:55.615Z,103179.53
2022-09-28T08:40:26.161Z,102757.97
2022-09-28T08:42:57.791Z,102588.22
2022-09-28T08:45:29.473Z,102582.81
2022-09-28T08:48:22.407Z,102579.84
2022-09-28T08:50:56.034Z,102333.31
2022-09-28T08:53:35.742Z,101981.09
2022-09-28T08:56:07.430Z,101467.38
2022-09-28T08:58:40.449Z,101241.44
2022-09-28T09:01:14.214Z,101160.03
2022-09-28T09:03:45.356Z,101022.06
2022-09-28T09:06:25.452Z,100997.19
2022-09-28T09:09:08.127Z,100920.41
2022-09-28T09:11:50.498Z,100850.91
2022-09-28T09:14:41.521Z,100744.50
2022-09-28T09:17:21.214Z,100702.72
2022-09-28T09:19:54.678Z,100675.47
2022-09-28T09:22:38.684Z,100678.44
2022-09-28T09:25:19.457Z,100639.22
2022-09-28T09:28:07.952Z,100739.16
2022-09-28T09:30:46.370Z,100711.22
2022-09-28T09:33:45.729Z,100678.16
2022-09-28T09:36:30.302Z,100804.69
2022-09-28T09:39:15.307Z,100800.31
2022-09-28T09:41:56.801Z,100819.94
2022-09-28T09:44:44.116Z,100703.31
2022-09-28T09:47:17.602Z,100592.09
2022-09-28T09:49:51.231Z,100635.69
2022-09-28T09:52:26.504Z,100526.31
2022-09-28T09:54:59.437Z,100384.19
2022-09-28T09:57:32.623Z,100279.63
2022-09-28T10:00:03.066Z,100141.34
2022-09-28T10:02:34.075Z,100185.81
2022-09-28T10:05:08.815Z,100618.59
2022-09-28T10:07:45.183Z,100714.03
2022-09-28T10:10:24.948Z,100654.72
2022-09-28T10:12:54.511Z,100601.13
2022-09-28T10:15:26.558Z,100520.66
2022-09-28T10:17:57.059Z,100327.81
2022-09-28T10:20:25.659Z,100248.78
2022-09-28T10:22:57.979Z,100234.81
2022-09-28T10:25:26.466Z,100215.38
2022-09-28T10:27:55.391Z,100235.13
2022-09-28T10:30:27.310Z,100188.34
2022-09-28T10:32:59.567Z,100197.22
2022-09-28T10:35:29.898Z,100169.34
2022-09-28T10:38:03.366Z,100257.22
2022-09-28T10:40:41.807Z,100340.47
2022-09-28T10:43:21.554Z,100410.09
2022-09-28T10:46:03.966Z,100509.06
2022-09-28T10:48:48.850Z,100497.50
2022-09-28T10:51:18.331Z,100535.38
2022-09-28T10:54:00.463Z,100513.31
2022-09-28T10:56:30.502Z,100454.94
2022-09-28T10:58:58.378Z,100450.97
2022-09-28T11:01:33.989Z,100448.28
2022-09-28T11:04:03.852Z,100383.72
2022-09-28T11:06:33.897Z,100319.06
2022-09-28T11:09:05.791Z,100283.97
2022-09-28T11:11:41.776Z,100318.50
2022-09-28T11:14:27.406Z,100346.94
2022-09-28T11:17:19.678Z,100307.50
2022-09-28T11:19:47.640Z,100297.34
2022-09-28T11:22:24.701Z,100210.56
2022-09-28T11:25:14.831Z,100296.78
2022-09-28T11:27:44.069Z,100562.72
2022-09-28T11:30:24.901Z,100621.97
2022-09-28T11:32:55.837Z,100675.47
2022-09-28T11:35:26.769Z,100564.41
2022-09-28T11:38:13.229Z,100543.53
2022-09-28T11:40:55.961Z,100845.38
2022-09-28T11:43:46.303Z,101464.00
2022-09-28T11:46:22.022Z,101900.91
2022-09-28T11:48:54.054Z,102085.28
2022-09-28T11:51:30.334Z,101629.78
2022-09-28T11:54:04.425Z,101137.59
2022-09-28T11:56:39.295Z,100724.63
2022-09-28T11:59:13.701Z,100542.09
2022-09-28T12:01:49.707Z,100928.50
2022-09-28T12:04:24.063Z,101260.94
2022-09-28T12:06:58.416Z,101593.47
2022-09-28T12:09:33.121Z,101802.06
2022-09-28T12:12:10.516Z,101561.72
2022-09-28T12:14:41.790Z,101119.91
2022-09-28T12:17:22.296Z,100881.16
2022-09-28T12:19:55.436Z,100682.41
2022-09-28T12:22:31.299Z,100477.19
2022-09-28T12:25:00.279Z,100275.38
2022-09-28T12:27:45.644Z,100137.09
2022-09-28T12:30:16.499Z,100124.25
2022-09-28T12:32:48.076Z,100204.47
2022-09-28T12:35:18.987Z,100364.81
2022-09-28T12:38:02.597Z,100919.22
2022-09-28T12:40:41.604Z,101659.66
2022-09-28T12:43:40.713Z,101664.06
2022-09-28T12:46:27.711Z,102171.16
2022-09-28T12:50:27.190Z,102939.03
2022-09-28T12:52:35.390Z,103137.25
2022-09-28T12:55:25.848Z,102680.38
2022-09-28T12:58:02.098Z,101958.63
2022-09-28T13:00:42.110Z,101263.06
2022-09-28T13:03:37.777Z,100925.28
2022-09-28T13:06:42.929Z,100652.75
2022-09-28T13:09:39.643Z,100517.13
2022-09-28T13:12:46.161Z,100386.97
2022-09-28T13:15:36.205Z,100423.88
2022-09-28T13:18:12.334Z,100218.84
2022-09-28T13:20:52.490Z,100181.06
2022-09-28T13:23:24.335Z,100080.88
2022-09-28T13:26:02.679Z,99936.06
2022-09-28T13:28:33.578Z,99887.19
2022-09-28T13:31:04.594Z,99959.44
2022-09-28T13:33:36.960Z,99993.38
2022-09-28T13:36:06.143Z,100072.28
2022-09-28T13:38:55.543Z,100127.78
2022-09-28T13:41:29.385Z,100308.28
2022-09-28T13:44:44.338Z,100714.88
2022-09-28T13:47:27.421Z,100596.00
2022-09-28T13:50:06.963Z,100384.38
2022-09-28T13:52:45.626Z,100233.88
2022-09-28T13:55:39.323Z,100223.47
2022-09-28T13:58:22.032Z,100058.47
2022-09-28T14:00:54.336Z,99893.63
2022-09-28T14:03:30.272Z,100190.91
2022-09-28T14:06:21.883Z,101377.59
2022-09-28T14:09:09.835Z,102778.41
2022-09-28T14:11:43.779Z,102859.94
2022-09-28T14:14:52.848Z,102128.63
2022-09-28T14:17:55.625Z,101052.13
2022-09-28T14:20:31.829Z,100714.47
2022-09-28T14:23:17.724Z,100306.31
2022-09-28T14:25:48.933Z,100382.41
2022-09-28T14:28:34.106Z,100546.59
2022-09-28T14:31:10.801Z,100683.78
2022-09-28T14:33:42.747Z,100671.38
2022-09-28T14:36:47.738Z,101097.03
2022-09-28T14:39:48.295Z,102092.53
2022-09-28T14:42:19.866Z,102037.16
2022-09-28T14:45:21.879Z,101631.63
2022-09-28T14:48:15.384Z,101158.75
2022-09-28T14:50:43.686Z,100811.78
2022-09-28T14:53:19.802Z,100524.31
2022-09-28T14:55:50.376Z,100301.50
2022-09-28T14:58:24.028Z,100109.38
2022-09-28T15:01:08.866Z,99905.09
2022-09-28T15:03:41.673Z,99807.66
2022-09-28T15:06:15.919Z,99704.94
2022-09-28T15:08:45.290Z,99572.47
2022-09-28T15:11:16.763Z,99462.94
2022-09-28T15:13:47.711Z,99389.34
2022-09-28T15:16:20.460Z,99368.13
2022-09-28T15:19:10.562Z,99277.94
2022-09-28T15:21:39.730Z,99256.19
2022-09-28T15:24:30.761Z,99212.41
2022-09-28T15:26:58.994Z,99214.22
2022-09-28T15:29:31.072Z,99196.84
2022-09-28T15:31:59.449Z,99233.09
2022-09-28T15:34:46.864Z,99220.91
2022-09-28T15:37:18.006Z,99172.56
2022-09-28T15:39:48.376Z,99157.78
2022-09-28T15:42:20.471Z,99123.88
2022-09-28T15:45:26.556Z,99076.31
2022-09-28T15:48:22.239Z,99030.94
2022-09-28T15:51:05.371Z,99006.22
2022-09-28T15:53:34.626Z,99000.56
2022-09-28T15:56:10.351Z,98962.13
2022-09-28T15:58:39.468Z,98980.16
2022-09-28T16:01:36.641Z,98926.59
2022-09-28T16:04:40.730Z,98943.53
2022-09-28T16:07:33.476Z,98828.16
2022-09-28T16:10:30.388Z,98694.44
2022-09-28T16:13:10.488Z,98690.59
2022-09-28T16:15:39.702Z,98653.34
2022-09-28T16:18:19.312Z,98589.59
2022-09-28T16:20:50.931Z,98529.00
2022-09-28T16:23:22.553Z,98498.72
2022-09-28T16:26:00.584Z,98496.72
2022-09-28T16:28:52.915Z,98457.16
2022-09-28T16:31:30.426Z,98411.72
2022-09-28T16:34:01.507Z,98390.63
2022-09-28T16:36:40.093Z,98363.69
2022-09-28T16:39:08.601Z,98303.50
2022-09-28T16:41:40.906Z,98245.38
2022-09-28T16:44:20.539Z,98159.47
2022-09-28T16:47:06.401Z,98153.34
2022-09-28T16:50:04.244Z,98029.16
2022-09-28T16:52:50.339Z,98010.28
2022-09-28T16:58:18.754Z,97934.66
2022-09-28T17:00:48.011Z,97966.63
2022-09-28T17:03:18.434Z,97966.31
2022-09-28T17:05:48.835Z,97947.72
2022-09-28T17:08:18.547Z,97977.25
2022-09-28T17:13:40.920Z,97971.63
2022-09-28T17:16:14.524Z,98003.97
2022-09-28T17:18:43.143Z,98022.22
2022-09-28T17:21:16.093Z,97992.00
2022-09-28T17:23:44.298Z,97998.00
2022-09-28T17:26:20.410Z,97967.16
2022-09-28T17:28:48.668Z,97931.47
2022-09-28T17:31:18.432Z,97949.69
2022-09-28T17:33:47.029Z,97921.53
2022-09-28T17:36:17.480Z,97929.63
2022-09-28T17:38:46.792Z,97914.56
2022-09-28T17:41:20.272Z,97898.63
2022-09-28T17:43:49.413Z,97899.81
2022-09-28T17:46:27.466Z,97892.19
2022-09-28T17:48:57.769Z,97862.84
2022-09-28T17:51:25.692Z,97804.19
2022-09-28T17:53:57.059Z,97815.41
2022-09-28T17:56:29.822Z,97793.06
2022-09-28T17:59:01.335Z,97774.16
2022-09-28T18:01:34.496Z,97736.41
2022-09-28T18:04:04.061Z,97707.59
2022-09-28T18:06:33.651Z,97714.84
2022-09-28T18:09:03.511Z,97733.06
2022-09-28T18:11:32.285Z,97765.56
2022-09-28T18:14:00.205Z,97798.38
2022-09-28T18:16:30.247Z,97810.97
2022-09-28T18:18:59.879Z,97851.75
2022-09-28T18:21:28.320Z,97849.41
2022-09-28T18:23:56.110Z,97849.06
2022-09-28T18:26:24.719Z,97896.50
2022-09-28T18:28:55.611Z,97903.44
2022-09-28T18:31:23.921Z,97912.06
2022-09-28T18:33:52.025Z,97903.44
2022-09-28T18:36:29.639Z,97892.34
2022-09-28T18:39:00.909Z,97892.19
2022-09-28T18:41:30.145Z,97854.03
2022-09-28T18:44:01.064Z,97838.81
2022-09-28T18:46:30.398Z,97831.16
2022-09-28T18:48:58.375Z,97815.94
2022-09-28T18:51:28.330Z,97844.91
2022-09-28T18:53:58.861Z,97855.41
2022-09-28T18:56:28.093Z,97850.09
2022-09-28T18:58:56.905Z,97850.75
2022-09-28T19:01:30.070Z,97855.41
2022-09-28T19:04:00.126Z,97847.91
2022-09-28T19:06:30.424Z,97843.44
2022-09-28T19:08:59.054Z,97837.81
2022-09-28T19:11:27.579Z,97824.06
2022-09-28T19:13:56.642Z,97776.84
2022-09-28T19:16:27.363Z,97738.38
2022-09-28T19:18:57.606Z,97682.59
2022-09-28T19:21:27.144Z,97613.22
2022-09-28T19:23:56.913Z,97559.94
2022-09-28T19:26:27.801Z,97509.28
2022-09-28T19:28:57.414Z,97462.34
2022-09-28T19:31:27.341Z,97427.97
2022-09-28T19:33:55.710Z,97390.41
2022-09-28T19:36:26.138Z,97372.69
2022-09-28T19:38:54.064Z,97320.19
2022-09-28T19:41:44.576Z,97296.69
2022-09-28T19:44:19.238Z,97262.03
2022-09-28T19:46:47.368Z,97262.97
2022-09-28T19:49:19.671Z,97246.97
2022-09-28T19:52:11.658Z,97236.38
2022-09-28T19:54:38.140Z,97224.03
2022-09-28T19:57:08.960Z,97226.34
2022-09-28T19:59:40.906Z,97219.56
2022-09-28T20:02:11.536Z,97255.22
2022-09-28T20:04:48.169Z,97246.50
2022-09-28T20:07:16.327Z,97245.50
2022-09-28T20:09:44.366Z,97221.09
2022-09-28T20:12:14.363Z,97202.41
2022-09-28T20:14:42.393Z,97173.31
2022-09-28T20:17:10.975Z,97119.00
2022-09-28T20:19:39.147Z,97095.25
2022-09-28T20:22:07.172Z,97060.91
2022-09-28T20:24:35.068Z,97018.03
2022-09-28T20:27:03.156Z,96992.47
2022-09-28T20:29:33.643Z,96977.81
2022-09-28T20:32:04.935Z,96982.09
2022-09-28T20:34:33.776Z,96956.22
2022-09-28T20:37:01.809Z,96954.22
2022-09-28T20:39:29.760Z,96978.44
2022-09-28T20:41:58.648Z,96989.00
2022-09-28T20:44:26.670Z,96972.03
2022-09-28T20:46:56.742Z,96959.97
2022-09-28T20:49:24.820Z,96939.53
2022-09-28T20:51:52.676Z,96906.09
2022-09-28T20:54:22.144Z,96870.97
2022-09-28T20:56:50.159Z,96852.88
2022-09-28T20:59:18.436Z,96830.13
2022-09-28T21:01:46.316Z,96807.69
2022-09-28T21:04:15.795Z,96801.13
2022-09-28T21:06:43.736Z,96781.06
2022-09-28T21:09:12.810Z,96772.50
2022-09-28T21:11:41.810Z,96783.72
2022-09-28T21:14:10.899Z,96816.25
2022-09-28T21:16:39.393Z,96846.78
2022-09-28T21:19:07.470Z,96864.41
2022-09-28T21:21:36.767Z,96859.94
2022-09-28T21:24:05.067Z,96870.34
2022-09-28T21:26:33.322Z,96880.56
2022-09-28T21:29:03.070Z,96871.97
2022-09-28T21:31:32.684Z,96860.78
2022-09-28T21:34:01.478Z,96850.72
2022-09-28T21:36:32.031Z,96861.59
2022-09-28T21:39:01.670Z,96879.09
2022-09-28T21:41:29.754Z,96876.25
2022-09-28T21:43:57.694Z,96899.34
2022-09-28T21:46:27.002Z,96896.41
2022-09-28T21:48:55.173Z,96893.75
2022-09-28T21:51:23.137Z,96929.69
2022-09-28T21:53:51.187Z,96928.69
2022-09-28T21:56:21.148Z,96981.53
2022-09-28T21:58:48.986Z,97087.53
2022-09-28T22:01:19.558Z,97155.03
2022-09-28T22:03:50.825Z,97204.22
2022-09-28T22:06:21.382Z,97309.09
2022-09-28T22:08:50.151Z,97404.16
2022-09-28T22:11:21.868Z,97462.69
2022-09-28T22:13:51.726Z,97491.97
2022-09-28T22:16:24.508Z,97502.38
2022-09-28T22:18:52.452Z,97511.81
2022-09-28T22:21:22.092Z,97508.50
2022-09-28T22:23:50.652Z,97506.50
2022-09-28T22:26:23.435Z,97518.94
2022-09-28T22:28:54.017Z,97546.22
2022-09-28T22:31:24.648Z,97550.69
2022-09-28T22:33:52.629Z,97571.88
2022-09-28T22:36:21.079Z,97579.81
2022-09-28T22:38:50.001Z,97581.16
2022-09-28T22:41:21.038Z,97605.81
2022-09-28T22:43:49.405Z,97611.94
2022-09-28T22:46:19.499Z,97599.84
2022-09-28T22:48:48.367Z,97595.56
2022-09-28T22:51:16.540Z,97584.31
2022-09-28T22:53:44.384Z,97571.88
2022-09-28T22:56:18.179Z,97568.09
2022-09-28T22:58:48.108Z,97552.69
2022-09-28T23:01:18.613Z,97511.19
2022-09-28T23:03:47.083Z,97493.13
2022-09-28T23:06:17.449Z,97476.09
2022-09-28T23:08:46.170Z,97478.94
2022-09-28T23:11:14.155Z,97465.38
2022-09-28T23:13:42.032Z,97449.50
2022-09-28T23:16:13.282Z,97425.63
2022-09-28T23:18:41.848Z,97396.91
2022-09-28T23:21:15.311Z,97389.63
2022-09-28T23:23:43.333Z,97377.72
2022-09-28T23:26:14.392Z,97368.47
2022-09-28T23:28:42.956Z,97380.06
2022-09-28T23:31:13.735Z,97417.03
2022-09-28T23:33:41.841Z,97407.16
2022-09-28T23:36:10.945Z,97419.38
2022-09-28T23:38:39.042Z,97427.47
2022-09-28T23:41:07.035Z,97410.91
2022-09-28T23:43:35.063Z,97413.75
2022-09-28T23:46:03.208Z,97399.38
2022-09-28T23:48:34.519Z,97377.25
2022-09-28T23:51:03.317Z,97342.84
2022-09-28T23:53:33.179Z,97308.97
2022-09-28T23:56:01.248Z,97291.47
2022-09-28T23:58:29.045Z,97261.91
